sensor_id;sensor_type;location;lat;lon;timestamp;pressure;altitude;pressure_sealevel;temperature;humidity
20889;BME280;10604;51.976;7.594;2022-07-23T00:01:18;101101.19;;;29.08;40.40
20889;BME280;10604;51.976;7.594;2022-07-23T00:03:43;101110.13;;;29.18;40.79
20889;BME280;10604;51.976;7.594;2022-07-23T00:06:09;101104.25;;;29.49;40.47
20889;BME280;10604;51.976;7.594;2022-07-23T00:08:34;101084.97;;;29.60;40.51
20889;BME280;10604;51.976;7.594;2022-07-23T00:10:59;101085.88;;;29.43;41.15
20889;BME280;10604;51.976;7.594;2022-07-23T00:13:26;101088.28;;;29.46;41.59
20889;BME280;10604;51.976;7.594;2022-07-23T00:15:51;101102.66;;;29.20;41.60
20889;BME280;10604;51.976;7.594;2022-07-23T00:18:16;101112.53;;;29.21;41.89
20889;BME280;10604;51.976;7.594;2022-07-23T00:20:42;101118.28;;;29.18;42.26
20889;BME280;10604;51.976;7.594;2022-07-23T00:23:07;101120.66;;;29.21;41.87
20889;BME280;10604;51.976;7.594;2022-07-23T00:25:32;101111.69;;;29.03;42.82
20889;BME280;10604;51.976;7.594;2022-07-23T00:27:58;101107.97;;;29.04;42.96
20889;BME280;10604;51.976;7.594;2022-07-23T00:30:24;101106.56;;;29.00;43.63
20889;BME280;10604;51.976;7.594;2022-07-23T00:32:50;101111.34;;;29.42;42.63
20889;BME280;10604;51.976;7.594;2022-07-23T00:35:16;101085.94;;;29.51;42.54
20889;BME280;10604;51.976;7.594;2022-07-23T00:37:44;101093.19;;;29.25;42.81
20889;BME280;10604;51.976;7.594;2022-07-23T00:40:09;101090.53;;;29.33;42.79
20889;BME280;10604;51.976;7.594;2022-07-23T00:42:35;101084.16;;;29.42;42.58
20889;BME280;10604;51.976;7.594;2022-07-23T00:45:00;101084.41;;;29.48;42.33
20889;BME280;10604;51.976;7.594;2022-07-23T00:47:25;101080.97;;;29.46;42.45
20889;BME280;10604;51.976;7.594;2022-07-23T00:49:51;101078.84;;;29.58;41.94
20889;BME280;10604;51.976;7.594;2022-07-23T00:52:16;101078.25;;;29.29;42.32
20889;BME280;10604;51.976;7.594;2022-07-23T00:54:41;101069.44;;;29.27;42.30
20889;BME280;10604;51.976;7.594;2022-07-23T00:57:07;101060.50;;;29.34;42.31
20889;BME280;10604;51.976;7.594;2022-07-23T00:59:32;101063.13;;;28.83;43.23
20889;BME280;10604;51.976;7.594;2022-07-23T01:01:57;101063.78;;;28.67;43.69
20889;BME280;10604;51.976;7.594;2022-07-23T01:04:23;101061.28;;;28.73;43.33
20889;BME280;10604;51.976;7.594;2022-07-23T01:06:48;101067.13;;;28.96;43.13
20889;BME280;10604;51.976;7.594;2022-07-23T01:09:13;101059.06;;;29.04;43.29
20889;BME280;10604;51.976;7.594;2022-07-23T01:11:39;101051.34;;;29.00;42.86
20889;BME280;10604;51.976;7.594;2022-07-23T01:14:11;101039.97;;;28.96;43.19
20889;BME280;10604;51.976;7.594;2022-07-23T01:16:36;101057.66;;;29.00;43.04
20889;BME280;10604;51.976;7.594;2022-07-23T01:19:01;101046.97;;;28.81;43.39
20889;BME280;10604;51.976;7.594;2022-07-23T01:21:28;101046.41;;;28.95;43.40
20889;BME280;10604;51.976;7.594;2022-07-23T01:23:54;101042.59;;;28.88;43.26
20889;BME280;10604;51.976;7.594;2022-07-23T01:26:19;101041.69;;;28.97;42.87
20889;BME280;10604;51.976;7.594;2022-07-23T01:28:45;101046.44;;;28.77;42.96
20889;BME280;10604;51.976;7.594;2022-07-23T01:31:10;101052.09;;;28.84;43.31
20889;BME280;10604;51.976;7.594;2022-07-23T01:33:35;101047.22;;;29.13;42.88
20889;BME280;10604;51.976;7.594;2022-07-23T01:36:01;101058.63;;;28.91;43.64
20889;BME280;10604;51.976;7.594;2022-07-23T01:38:26;101049.44;;;28.92;43.42
20889;BME280;10604;51.976;7.594;2022-07-23T01:40:51;101049.97;;;28.96;42.56
20889;BME280;10604;51.976;7.594;2022-07-23T01:43:16;101058.19;;;29.04;42.86
20889;BME280;10604;51.976;7.594;2022-07-23T01:45:42;101056.13;;;29.41;42.14
20889;BME280;10604;51.976;7.594;2022-07-23T01:48:09;101051.88;;;29.39;42.28
20889;BME280;10604;51.976;7.594;2022-07-23T01:50:34;101056.41;;;29.64;41.61
20889;BME280;10604;51.976;7.594;2022-07-23T01:52:59;101061.78;;;29.48;41.94
20889;BME280;10604;51.976;7.594;2022-07-23T01:55:25;101059.47;;;29.61;42.01
20889;BME280;10604;51.976;7.594;2022-07-23T01:57:50;101063.25;;;29.68;41.80
20889;BME280;10604;51.976;7.594;2022-07-23T02:00:15;101062.75;;;29.39;41.97
20889;BME280;10604;51.976;7.594;2022-07-23T02:02:41;101064.63;;;29.72;41.42
20889;BME280;10604;51.976;7.594;2022-07-23T02:05:07;101062.75;;;29.39;42.32
20889;BME280;10604;51.976;7.594;2022-07-23T02:07:32;101051.88;;;29.39;42.29
20889;BME280;10604;51.976;7.594;2022-07-23T02:09:57;101058.41;;;29.54;41.90
20889;BME280;10604;51.976;7.594;2022-07-23T02:12:22;101047.31;;;29.73;41.48
20889;BME280;10604;51.976;7.594;2022-07-23T02:14:48;101040.94;;;29.90;40.99
20889;BME280;10604;51.976;7.594;2022-07-23T02:17:13;101048.16;;;30.08;40.88
20889;BME280;10604;51.976;7.594;2022-07-23T02:19:38;101050.97;;;29.90;40.99
20889;BME280;10604;51.976;7.594;2022-07-23T02:22:04;101044.28;;;29.76;41.72
20889;BME280;10604;51.976;7.594;2022-07-23T02:24:29;101039.59;;;29.61;41.69
20889;BME280;10604;51.976;7.594;2022-07-23T02:26:54;101057.72;;;29.52;42.27
20889;BME280;10604;51.976;7.594;2022-07-23T02:29:19;101045.59;;;29.72;41.62
20889;BME280;10604;51.976;7.594;2022-07-23T02:31:44;101053.50;;;29.91;41.00
20889;BME280;10604;51.976;7.594;2022-07-23T02:34:11;101044.22;;;29.68;41.32
20889;BME280;10604;51.976;7.594;2022-07-23T02:36:37;101032.53;;;29.50;41.56
20889;BME280;10604;51.976;7.594;2022-07-23T02:39:02;101044.81;;;29.54;41.22
20889;BME280;10604;51.976;7.594;2022-07-23T02:41:27;101056.69;;;28.84;42.59
20889;BME280;10604;51.976;7.594;2022-07-23T02:43:53;101043.72;;;29.21;41.54
20889;BME280;10604;51.976;7.594;2022-07-23T02:46:18;101045.19;;;29.15;41.42
20889;BME280;10604;51.976;7.594;2022-07-23T02:48:43;101050.91;;;29.04;41.63
20889;BME280;10604;51.976;7.594;2022-07-23T02:51:08;101039.34;;;29.02;41.39
20889;BME280;10604;51.976;7.594;2022-07-23T02:53:34;101047.41;;;28.59;42.56
20889;BME280;10604;51.976;7.594;2022-07-23T02:55:59;101051.00;;;28.77;41.76
20889;BME280;10604;51.976;7.594;2022-07-23T02:58:25;101046.94;;;28.46;42.01
20889;BME280;10604;51.976;7.594;2022-07-23T03:00:52;101049.03;;;28.34;42.55
20889;BME280;10604;51.976;7.594;2022-07-23T03:03:17;101045.91;;;28.64;41.93
20889;BME280;10604;51.976;7.594;2022-07-23T03:05:42;101041.69;;;28.97;41.09
20889;BME280;10604;51.976;7.594;2022-07-23T03:08:08;101039.19;;;28.86;41.11
20889;BME280;10604;51.976;7.594;2022-07-23T03:10:33;101049.44;;;28.92;41.60
20889;BME280;10604;51.976;7.594;2022-07-23T03:12:58;101047.56;;;29.10;41.35
20889;BME280;10604;51.976;7.594;2022-07-23T03:15:23;101045.31;;;28.88;41.38
20889;BME280;10604;51.976;7.594;2022-07-23T03:17:49;101035.28;;;28.71;41.97
20889;BME280;10604;51.976;7.594;2022-07-23T03:20:14;101035.91;;;28.65;41.74
20889;BME280;10604;51.976;7.594;2022-07-23T03:22:39;101042.00;;;28.76;41.25
20889;BME280;10604;51.976;7.594;2022-07-23T03:25:05;101041.28;;;28.74;41.40
20889;BME280;10604;51.976;7.594;2022-07-23T03:27:30;101039.47;;;28.30;42.62
20889;BME280;10604;51.976;7.594;2022-07-23T03:29:56;101036.13;;;28.71;41.10
20889;BME280;10604;51.976;7.594;2022-07-23T03:32:22;101030.34;;;28.49;41.34
20889;BME280;10604;51.976;7.594;2022-07-23T03:34:48;101026.53;;;28.14;42.39
20889;BME280;10604;51.976;7.594;2022-07-23T03:37:13;101028.94;;;28.44;41.66
20889;BME280;10604;51.976;7.594;2022-07-23T03:39:39;101031.09;;;28.59;41.42
20889;BME280;10604;51.976;7.594;2022-07-23T03:42:04;101033.25;;;28.37;42.00
20889;BME280;10604;51.976;7.594;2022-07-23T03:44:29;101031.22;;;27.94;43.03
20889;BME280;10604;51.976;7.594;2022-07-23T03:46:55;101032.88;;;27.78;43.25
20889;BME280;10604;51.976;7.594;2022-07-23T03:49:20;101026.75;;;28.30;42.00
20889;BME280;10604;51.976;7.594;2022-07-23T03:51:45;101031.94;;;28.14;42.66
20889;BME280;10604;51.976;7.594;2022-07-23T03:54:11;101035.41;;;28.16;42.98
20889;BME280;10604;51.976;7.594;2022-07-23T03:56:36;101037.13;;;28.08;42.47
20889;BME280;10604;51.976;7.594;2022-07-23T03:59:01;101036.59;;;28.04;42.21
20889;BME280;10604;51.976;7.594;2022-07-23T04:01:27;101042.53;;;27.43;43.87
20889;BME280;10604;51.976;7.594;2022-07-23T04:03:52;101033.69;;;27.88;43.05
20889;BME280;10604;51.976;7.594;2022-07-23T04:06:17;101034.78;;;28.22;42.11
20889;BME280;10604;51.976;7.594;2022-07-23T04:08:43;101033.06;;;27.94;42.29
20889;BME280;10604;51.976;7.594;2022-07-23T04:11:08;101037.75;;;27.18;44.36
20889;BME280;10604;51.976;7.594;2022-07-23T04:13:33;101040.13;;;27.40;43.75
20889;BME280;10604;51.976;7.594;2022-07-23T04:15:58;101033.94;;;26.92;44.36
20889;BME280;10604;51.976;7.594;2022-07-23T04:18:24;101039.59;;;27.08;44.36
20889;BME280;10604;51.976;7.594;2022-07-23T04:20:52;101036.34;;;26.56;45.19
20889;BME280;10604;51.976;7.594;2022-07-23T04:23:19;101029.94;;;26.57;45.08
20889;BME280;10604;51.976;7.594;2022-07-23T04:25:44;101030.25;;;26.93;44.37
20889;BME280;10604;51.976;7.594;2022-07-23T04:28:09;101037.91;;;26.78;44.77
20889;BME280;10604;51.976;7.594;2022-07-23T04:30:34;101044.63;;;26.64;45.23
20889;BME280;10604;51.976;7.594;2022-07-23T04:33:00;101049.19;;;27.02;44.36
20889;BME280;10604;51.976;7.594;2022-07-23T04:35:25;101038.59;;;27.28;43.75
20889;BME280;10604;51.976;7.594;2022-07-23T04:37:50;101041.09;;;26.93;44.94
20889;BME280;10604;51.976;7.594;2022-07-23T04:40:15;101041.72;;;26.37;46.33
20889;BME280;10604;51.976;7.594;2022-07-23T04:42:41;101043.47;;;26.57;46.12
20889;BME280;10604;51.976;7.594;2022-07-23T04:45:06;101045.47;;;26.94;44.91
20889;BME280;10604;51.976;7.594;2022-07-23T04:47:32;101049.44;;;27.09;44.76
20889;BME280;10604;51.976;7.594;2022-07-23T04:49:57;101044.88;;;27.19;44.73
20889;BME280;10604;51.976;7.594;2022-07-23T04:52:22;101053.81;;;27.29;44.53
20889;BME280;10604;51.976;7.594;2022-07-23T04:54:48;101061.81;;;27.40;44.81
20889;BME280;10604;51.976;7.594;2022-07-23T04:57:13;101051.94;;;27.49;44.38
20889;BME280;10604;51.976;7.594;2022-07-23T04:59:38;101044.22;;;27.44;44.50
20889;BME280;10604;51.976;7.594;2022-07-23T05:02:04;101048.81;;;27.53;44.87
20889;BME280;10604;51.976;7.594;2022-07-23T05:04:29;101056.50;;;27.48;44.66
20889;BME280;10604;51.976;7.594;2022-07-23T05:06:54;101055.91;;;27.64;44.83
20889;BME280;10604;51.976;7.594;2022-07-23T05:09:19;101049.34;;;27.66;44.33
20889;BME280;10604;51.976;7.594;2022-07-23T05:11:45;101062.59;;;27.70;44.51
20889;BME280;10604;51.976;7.594;2022-07-23T05:14:10;101069.03;;;27.69;45.19
20889;BME280;10604;51.976;7.594;2022-07-23T05:16:37;101076.69;;;27.83;44.91
20889;BME280;10604;51.976;7.594;2022-07-23T05:19:02;101067.06;;;27.98;45.07
20889;BME280;10604;51.976;7.594;2022-07-23T05:21:28;101078.59;;;28.00;44.78
20889;BME280;10604;51.976;7.594;2022-07-23T05:23:53;101075.97;;;28.18;44.74
20889;BME280;10604;51.976;7.594;2022-07-23T05:26:18;101081.25;;;28.10;45.27
20889;BME280;10604;51.976;7.594;2022-07-23T05:28:43;101072.88;;;28.03;44.97
20889;BME280;10604;51.976;7.594;2022-07-23T05:31:09;101073.03;;;28.29;44.55
20889;BME280;10604;51.976;7.594;2022-07-23T05:33:34;101079.75;;;28.34;44.38
20889;BME280;10604;51.976;7.594;2022-07-23T05:36:00;101087.78;;;28.26;45.22
20889;BME280;10604;51.976;7.594;2022-07-23T05:38:25;101086.47;;;28.30;44.50
20889;BME280;10604;51.976;7.594;2022-07-23T05:40:50;101088.78;;;28.25;44.97
20889;BME280;10604;51.976;7.594;2022-07-23T05:43:16;101087.69;;;28.18;45.04
20889;BME280;10604;51.976;7.594;2022-07-23T05:45:41;101083.28;;;28.35;45.37
20889;BME280;10604;51.976;7.594;2022-07-23T05:48:06;101083.56;;;28.41;44.73
20889;BME280;10604;51.976;7.594;2022-07-23T05:50:32;101084.34;;;28.24;44.48
20889;BME280;10604;51.976;7.594;2022-07-23T05:52:57;101086.09;;;28.43;44.44
20889;BME280;10604;51.976;7.594;2022-07-23T05:55:22;101078.28;;;28.58;44.41
20889;BME280;10604;51.976;7.594;2022-07-23T05:57:47;101091.44;;;28.80;44.00
20889;BME280;10604;51.976;7.594;2022-07-23T06:00:13;101100.16;;;28.74;44.21
20889;BME280;10604;51.976;7.594;2022-07-23T06:02:38;101100.44;;;28.98;44.37
20889;BME280;10604;51.976;7.594;2022-07-23T06:05:04;101110.19;;;28.73;44.57
20889;BME280;10604;51.976;7.594;2022-07-23T06:07:29;101100.28;;;28.00;46.92
20889;BME280;10604;51.976;7.594;2022-07-23T06:09:55;101105.59;;;28.74;45.45
20889;BME280;10604;51.976;7.594;2022-07-23T06:12:20;101113.25;;;28.88;45.09
20889;BME280;10604;51.976;7.594;2022-07-23T06:14:45;101109.91;;;28.76;45.02
20889;BME280;10604;51.976;7.594;2022-07-23T06:17:13;101110.34;;;29.25;44.26
20889;BME280;10604;51.976;7.594;2022-07-23T06:19:38;101105.72;;;29.61;42.96
20889;BME280;10604;51.976;7.594;2022-07-23T06:22:03;101113.28;;;29.75;42.82
20889;BME280;10604;51.976;7.594;2022-07-23T06:24:29;101115.97;;;29.67;42.70
20889;BME280;10604;51.976;7.594;2022-07-23T06:26:54;101114.66;;;29.79;43.06
20889;BME280;10604;51.976;7.594;2022-07-23T06:29:19;101125.22;;;29.56;43.22
20889;BME280;10604;51.976;7.594;2022-07-23T06:31:44;101123.66;;;29.98;42.63
20889;BME280;10604;51.976;7.594;2022-07-23T06:34:10;101117.56;;;30.04;42.14
20889;BME280;10604;51.976;7.594;2022-07-23T06:36:35;101115.09;;;29.92;42.51
20889;BME280;10604;51.976;7.594;2022-07-23T06:39:00;101115.25;;;29.65;42.68
20889;BME280;10604;51.976;7.594;2022-07-23T06:41:25;101124.41;;;29.64;42.47
20889;BME280;10604;51.976;7.594;2022-07-23T06:43:51;101127.38;;;29.96;41.68
20889;BME280;10604;51.976;7.594;2022-07-23T06:46:16;101141.03;;;30.05;41.33
20889;BME280;10604;51.976;7.594;2022-07-23T06:48:41;101142.31;;;30.60;41.33
20889;BME280;10604;51.976;7.594;2022-07-23T06:51:07;101139.31;;;30.88;40.19
20889;BME280;10604;51.976;7.594;2022-07-23T06:53:32;101141.91;;;31.05;40.04
20889;BME280;10604;51.976;7.594;2022-07-23T06:55:57;101144.25;;;31.00;39.58
20889;BME280;10604;51.976;7.594;2022-07-23T06:58:22;101134.19;;;30.85;38.91
20889;BME280;10604;51.976;7.594;2022-07-23T07:00:48;101136.94;;;30.93;38.93
20889;BME280;10604;51.976;7.594;2022-07-23T07:03:13;101141.59;;;31.17;38.22
20889;BME280;10604;51.976;7.594;2022-07-23T07:05:38;101153.25;;;30.01;39.61
20889;BME280;10604;51.976;7.594;2022-07-23T07:08:05;101148.25;;;30.22;38.64
20889;BME280;10604;51.976;7.594;2022-07-23T07:10:30;101146.88;;;31.18;38.15
20889;BME280;10604;51.976;7.594;2022-07-23T07:12:56;101147.88;;;31.58;37.40
20889;BME280;10604;51.976;7.594;2022-07-23T07:15:21;101153.97;;;30.45;38.81
20889;BME280;10604;51.976;7.594;2022-07-23T07:17:46;101146.53;;;31.21;38.33
20889;BME280;10604;51.976;7.594;2022-07-23T07:20:12;101149.75;;;31.41;38.44
20889;BME280;10604;51.976;7.594;2022-07-23T07:22:37;101148.44;;;30.54;39.02
20889;BME280;10604;51.976;7.594;2022-07-23T07:25:03;101148.94;;;31.24;38.97
20889;BME280;10604;51.976;7.594;2022-07-23T07:27:28;101147.28;;;30.31;39.25
20889;BME280;10604;51.976;7.594;2022-07-23T07:29:53;101139.03;;;31.15;38.49
20889;BME280;10604;51.976;7.594;2022-07-23T07:32:19;101152.66;;;31.64;38.15
20889;BME280;10604;51.976;7.594;2022-07-23T07:34:44;101141.28;;;30.53;37.74
20889;BME280;10604;51.976;7.594;2022-07-23T07:37:09;101146.44;;;32.18;36.04
20889;BME280;10604;51.976;7.594;2022-07-23T07:39:34;101143.75;;;30.89;37.14
20889;BME280;10604;51.976;7.594;2022-07-23T07:42:00;101154.66;;;31.94;36.81
20889;BME280;10604;51.976;7.594;2022-07-23T07:44:25;101151.56;;;32.05;35.73
20889;BME280;10604;51.976;7.594;2022-07-23T07:46:50;101157.78;;;32.77;35.07
20889;BME280;10604;51.976;7.594;2022-07-23T07:49:15;101160.25;;;33.18;34.69
20889;BME280;10604;51.976;7.594;2022-07-23T07:51:44;101160.84;;;31.64;36.42
20889;BME280;10604;51.976;7.594;2022-07-23T07:54:09;101163.09;;;31.60;36.52
20889;BME280;10604;51.976;7.594;2022-07-23T07:56:34;101168.69;;;31.83;36.59
20889;BME280;10604;51.976;7.594;2022-07-23T07:59:00;101166.31;;;31.39;35.96
20889;BME280;10604;51.976;7.594;2022-07-23T08:01:26;101171.34;;;32.07;36.40
20889;BME280;10604;51.976;7.594;2022-07-23T08:03:51;101166.91;;;32.14;35.32
20889;BME280;10604;51.976;7.594;2022-07-23T08:06:16;101167.84;;;31.50;34.44
20889;BME280;10604;51.976;7.594;2022-07-23T08:08:41;101163.16;;;30.94;36.70
20889;BME280;10604;51.976;7.594;2022-07-23T08:11:07;101167.44;;;32.02;34.63
20889;BME280;10604;51.976;7.594;2022-07-23T08:13:32;101183.88;;;32.41;34.52
20889;BME280;10604;51.976;7.594;2022-07-23T08:15:57;101180.28;;;31.36;34.78
20889;BME280;10604;51.976;7.594;2022-07-23T08:18:23;101175.84;;;31.19;35.12
20889;BME280;10604;51.976;7.594;2022-07-23T08:20:48;101174.31;;;31.25;35.09
20889;BME280;10604;51.976;7.594;2022-07-23T08:23:13;101183.47;;;32.60;34.45
20889;BME280;10604;51.976;7.594;2022-07-23T08:25:42;101180.59;;;33.23;32.50
20889;BME280;10604;51.976;7.594;2022-07-23T08:28:10;101179.75;;;33.15;32.39
20889;BME280;10604;51.976;7.594;2022-07-23T08:30:36;101183.78;;;33.27;32.53
20889;BME280;10604;51.976;7.594;2022-07-23T08:33:03;101186.53;;;33.27;32.79
20889;BME280;10604;51.976;7.594;2022-07-23T08:35:29;101181.41;;;32.70;31.98
20889;BME280;10604;51.976;7.594;2022-07-23T08:37:56;101190.19;;;32.49;33.15
20889;BME280;10604;51.976;7.594;2022-07-23T08:40:22;101203.84;;;33.42;33.90
20889;BME280;10604;51.976;7.594;2022-07-23T08:42:49;101205.16;;;34.06;32.51
20889;BME280;10604;51.976;7.594;2022-07-23T08:45:16;101202.63;;;33.67;32.15
20889;BME280;10604;51.976;7.594;2022-07-23T08:47:42;101200.72;;;32.99;32.79
20889;BME280;10604;51.976;7.594;2022-07-23T08:50:08;101208.09;;;34.64;30.47
20889;BME280;10604;51.976;7.594;2022-07-23T08:52:35;101196.59;;;33.49;30.73
20889;BME280;10604;51.976;7.594;2022-07-23T08:55:01;101198.81;;;34.94;29.48
20889;BME280;10604;51.976;7.594;2022-07-23T08:57:26;101197.66;;;34.38;30.30
20889;BME280;10604;51.976;7.594;2022-07-23T08:59:51;101191.88;;;35.19;30.02
20889;BME280;10604;51.976;7.594;2022-07-23T09:02:17;101201.13;;;34.46;30.10
20889;BME280;10604;51.976;7.594;2022-07-23T09:04:42;101202.75;;;34.26;29.73
20889;BME280;10604;51.976;7.594;2022-07-23T09:07:08;101191.72;;;34.70;29.37
20889;BME280;10604;51.976;7.594;2022-07-23T09:09:33;101206.09;;;33.16;30.22
20889;BME280;10604;51.976;7.594;2022-07-23T09:12:02;101204.50;;;32.04;32.64
20889;BME280;10604;51.976;7.594;2022-07-23T09:17:13;101211.63;;;32.13;31.63
20889;BME280;10604;51.976;7.594;2022-07-23T09:19:39;101206.22;;;34.20;30.28
20889;BME280;10604;51.976;7.594;2022-07-23T09:22:37;101200.09;;;34.98;29.33
20889;BME280;10604;51.976;7.594;2022-07-23T09:25:05;101208.94;;;35.29;28.63
20889;BME280;10604;51.976;7.594;2022-07-23T09:30:15;101209.06;;;35.43;28.78
20889;BME280;10604;51.976;7.594;2022-07-23T09:32:40;101211.47;;;35.31;28.79
20889;BME280;10604;51.976;7.594;2022-07-23T09:35:05;101214.34;;;34.57;29.39
20889;BME280;10604;51.976;7.594;2022-07-23T09:37:31;101205.38;;;36.06;27.09
20889;BME280;10604;51.976;7.594;2022-07-23T09:40:03;101207.13;;;36.96;26.83
20889;BME280;10604;51.976;7.594;2022-07-23T09:42:28;101216.13;;;37.24;26.66
20889;BME280;10604;51.976;7.594;2022-07-23T09:44:57;101204.09;;;36.02;27.08
20889;BME280;10604;51.976;7.594;2022-07-23T09:47:23;101196.38;;;36.19;26.14
20889;BME280;10604;51.976;7.594;2022-07-23T09:49:59;101195.78;;;37.25;25.72
20889;BME280;10604;51.976;7.594;2022-07-23T09:52:29;101195.97;;;36.63;26.28
20889;BME280;10604;51.976;7.594;2022-07-23T09:54:58;101198.88;;;36.96;26.41
20889;BME280;10604;51.976;7.594;2022-07-23T09:57:25;101203.78;;;36.18;26.46
20889;BME280;10604;51.976;7.594;2022-07-23T09:59:51;101198.41;;;35.82;26.21
20889;BME280;10604;51.976;7.594;2022-07-23T10:02:16;101192.56;;;35.64;26.96
20889;BME280;10604;51.976;7.594;2022-07-23T10:04:42;101201.47;;;36.63;27.21
20889;BME280;10604;51.976;7.594;2022-07-23T10:07:08;101206.78;;;36.64;26.21
20889;BME280;10604;51.976;7.594;2022-07-23T10:09:41;101207.97;;;37.03;26.23
20889;BME280;10604;51.976;7.594;2022-07-23T10:12:13;101212.41;;;37.65;25.58
20889;BME280;10604;51.976;7.594;2022-07-23T10:14:45;101205.06;;;38.56;24.39
20889;BME280;10604;51.976;7.594;2022-07-23T10:17:10;101214.47;;;38.28;24.90
20889;BME280;10604;51.976;7.594;2022-07-23T10:19:35;101202.53;;;36.21;24.84
20889;BME280;10604;51.976;7.594;2022-07-23T10:22:22;101204.94;;;36.71;25.02
20889;BME280;10604;51.976;7.594;2022-07-23T10:24:52;101202.06;;;38.64;23.18
20889;BME280;10604;51.976;7.594;2022-07-23T10:37:32;101203.09;;;39.14;23.03
20889;BME280;10604;51.976;7.594;2022-07-23T10:40:09;101201.28;;;40.68;22.01
20889;BME280;10604;51.976;7.594;2022-07-23T10:42:35;101195.94;;;41.15;20.64
20889;BME280;10604;51.976;7.594;2022-07-23T10:45:00;101199.78;;;41.14;20.58
20889;BME280;10604;51.976;7.594;2022-07-23T10:47:27;101195.34;;;41.66;21.20
20889;BME280;10604;51.976;7.594;2022-07-23T10:50:19;101208.63;;;41.76;20.78
20889;BME280;10604;51.976;7.594;2022-07-23T10:55:39;101197.19;;;41.31;21.16
20889;BME280;10604;51.976;7.594;2022-07-23T10:58:05;101200.28;;;40.02;22.35
20889;BME280;10604;51.976;7.594;2022-07-23T11:00:33;101195.72;;;39.33;23.22
20889;BME280;10604;51.976;7.594;2022-07-23T11:03:00;101198.19;;;39.47;22.65
20889;BME280;10604;51.976;7.594;2022-07-23T11:05:38;101202.66;;;39.73;21.94
20889;BME280;10604;51.976;7.594;2022-07-23T11:10:35;101205.06;;;38.56;22.83
20889;BME280;10604;51.976;7.594;2022-07-23T11:32:01;101193.81;;;40.08;20.70
20889;BME280;10604;51.976;7.594;2022-07-23T11:36:56;101197.69;;;40.07;22.55
20889;BME280;10604;51.976;7.594;2022-07-23T11:39:22;101196.59;;;38.37;23.20
20889;BME280;10604;51.976;7.594;2022-07-23T11:41:50;101194.53;;;41.24;21.05
20889;BME280;10604;51.976;7.594;2022-07-23T11:44:29;101194.31;;;41.37;20.85
20889;BME280;10604;51.976;7.594;2022-07-23T11:46:58;101195.53;;;41.41;20.71
20889;BME280;10604;51.976;7.594;2022-07-23T11:49:24;101190.31;;;43.02;20.30
20889;BME280;10604;51.976;7.594;2022-07-23T11:54:34;101196.69;;;42.85;19.56
20889;BME280;10604;51.976;7.594;2022-07-23T11:57:00;101189.56;;;42.14;20.92
20889;BME280;10604;51.976;7.594;2022-07-23T11:59:26;101182.97;;;41.27;20.96
20889;BME280;10604;51.976;7.594;2022-07-23T12:04:24;101185.59;;;42.34;19.40
20889;BME280;10604;51.976;7.594;2022-07-23T12:06:50;101193.41;;;44.34;18.82
20889;BME280;10604;51.976;7.594;2022-07-23T12:09:15;101196.75;;;42.62;19.20
20889;BME280;10604;51.976;7.594;2022-07-23T12:11:55;101188.13;;;40.94;20.85
20889;BME280;10604;51.976;7.594;2022-07-23T12:14:21;101188.94;;;38.53;23.76
20889;BME280;10604;51.976;7.594;2022-07-23T12:16:46;101187.28;;;40.27;21.33
20889;BME280;10604;51.976;7.594;2022-07-23T12:19:11;101187.66;;;40.49;20.73
20889;BME280;10604;51.976;7.594;2022-07-23T12:21:38;101180.78;;;40.15;21.15
20889;BME280;10604;51.976;7.594;2022-07-23T12:24:07;101188.84;;;42.31;20.70
20889;BME280;10604;51.976;7.594;2022-07-23T12:26:32;101183.78;;;42.28;20.07
20889;BME280;10604;51.976;7.594;2022-07-23T12:28:57;101186.38;;;43.26;19.74
20889;BME280;10604;51.976;7.594;2022-07-23T12:31:26;101182.00;;;43.80;18.54
20889;BME280;10604;51.976;7.594;2022-07-23T12:33:52;101185.03;;;43.45;19.47
20889;BME280;10604;51.976;7.594;2022-07-23T12:36:17;101188.88;;;43.44;19.47
20889;BME280;10604;51.976;7.594;2022-07-23T12:38:51;101196.63;;;40.62;20.43
20889;BME280;10604;51.976;7.594;2022-07-23T12:41:16;101185.81;;;41.09;20.81
20889;BME280;10604;51.976;7.594;2022-07-23T12:43:43;101186.28;;;42.52;19.75
20889;BME280;10604;51.976;7.594;2022-07-23T12:46:10;101174.63;;;42.15;20.15
20889;BME280;10604;51.976;7.594;2022-07-23T12:48:39;101177.44;;;40.67;20.42
20889;BME280;10604;51.976;7.594;2022-07-23T12:53:44;101183.88;;;43.75;19.67
20889;BME280;10604;51.976;7.594;2022-07-23T12:56:10;101194.28;;;43.51;18.95
20889;BME280;10604;51.976;7.594;2022-07-23T13:01:21;101192.47;;;40.72;20.55
20889;BME280;10604;51.976;7.594;2022-07-23T13:06:24;101178.00;;;41.18;21.71
20889;BME280;10604;51.976;7.594;2022-07-23T13:08:50;101187.38;;;41.58;20.27
20889;BME280;10604;51.976;7.594;2022-07-23T13:11:15;101195.56;;;40.45;21.07
20889;BME280;10604;51.976;7.594;2022-07-23T13:13:41;101187.66;;;40.67;21.19
20889;BME280;10604;51.976;7.594;2022-07-23T13:16:06;101194.63;;;41.18;20.61
20889;BME280;10604;51.976;7.594;2022-07-23T13:18:31;101189.44;;;39.75;21.42
20889;BME280;10604;51.976;7.594;2022-07-23T13:20:56;101192.69;;;40.15;21.31
20889;BME280;10604;51.976;7.594;2022-07-23T13:23:22;101194.81;;;41.34;20.55
20889;BME280;10604;51.976;7.594;2022-07-23T13:25:47;101195.09;;;41.15;20.30
20889;BME280;10604;51.976;7.594;2022-07-23T13:28:13;101192.72;;;41.00;20.52
20889;BME280;10604;51.976;7.594;2022-07-23T13:30:39;101203.63;;;40.47;20.88
20889;BME280;10604;51.976;7.594;2022-07-23T13:33:05;101199.16;;;42.58;20.06
20889;BME280;10604;51.976;7.594;2022-07-23T13:35:30;101196.78;;;39.07;22.27
20889;BME280;10604;51.976;7.594;2022-07-23T13:37:56;101207.56;;;40.76;21.32
20889;BME280;10604;51.976;7.594;2022-07-23T13:40:21;101209.59;;;42.16;19.82